• Join FlightAware (Why Join?)
  • Login
  • US Flag 
07:45AM EST


 

Airport Tracker/Info


-or-


 

Live Flight TrackerFlight Track Log ✈ SWA1533 ✈ 12-Apr-2013 ✈ KMHT - KBWI

Flight Track Log - Related Links

Times and Time Zones

All times are in EDT time to prevent confusion due to time zone crossing. See the SWA1533 flight status page for this flight to view local times or setup timezone preferences in your user account.

Time Position Orientation Groundspeed Altitude Reporting Facility
EDT Latitude Longitude Course Direction KTS MPH feet Rate Location/Type
07:20PM 42.9500 -71.4167 16° North 140 161 1,200  Level KA90
07:22PM 42.9981 -71.3983 16° North 187 215 3,800 1,938 Climbing Boston Center
07:22PM 43.0117 -71.3214 76° East 226 260 5,400 2,500 Climbing Boston Center
07:24PM 43.0397 -71.2072 71° East 263 303 8,800 3,481 Climbing Boston Center
07:25PM 43.0736 -71.0586 73° East 324 373 13,000 2,565 Climbing Boston Center
07:26PM 43.0428 -70.9400 110° East 340 391 14,400 2,182 Climbing Boston Center
07:27PM 42.9403 -70.9058 166° South 319 367 17,400 2,727 Climbing Boston Center
07:28PM 42.8594 -70.9444 199° South 297 342 19,900 2,521 Climbing Boston Center
07:29PM 42.7600 -70.9922 199° South 337 388 22,400 2,390 Climbing Boston Center
07:30PM 42.6861 -71.0900 224° Southwest 357 411 24,600 2,100 Climbing Boston Center
07:31PM 42.6314 -71.2125 239° Southwest 363 418 26,600 1,884 Climbing Boston Center
07:32PM 42.5722 -71.3406 238° Southwest 382 440 28,400 1,669 Climbing Boston Center
07:33PM 42.5028 -71.4967 239° Southwest 401 461 30,300 1,895 Climbing Boston Center
07:34PM 42.4392 -71.6214 235° Southwest 412 474 32,600 1,866 Climbing Boston Center
07:35PM 42.3817 -71.7458 238° Southwest 412 474 34,000 712 Climbing Boston Center
07:36PM 42.3239 -71.8700 238° Southwest 407 468 34,000  Level Boston Center
07:37PM 42.2661 -71.9969 238° Southwest 401 461 34,000  Level Boston Center
07:38PM 42.2083 -72.1206 238° Southwest 401 461 34,000  Level Boston Center
07:39PM 42.1503 -72.2469 238° Southwest 401 461 34,000  Level Boston Center
07:40PM 42.0878 -72.3786 237° Southwest 396 456 34,000  Level Boston Center
07:41PM 42.0272 -72.5017 237° Southwest 396 456 34,000  Level Boston Center
07:42PM 41.9708 -72.6244 238° Southwest 396 456 34,000  Level Boston Center
07:43PM 41.9333 -72.7025 237° Southwest 391 450 34,000  Level Boston Center
07:44PM 41.8433 -72.8247 225° Southwest 391 450 34,000  Level Boston Center
07:45PM 41.7575 -72.9383 225° Southwest 391 450 34,000  Level Boston Center
07:46PM 41.6839 -73.0406 226° Southwest 391 450 34,000  Level Boston Center
07:47PM 41.6106 -73.1397 225° Southwest 386 444 34,000  Level Boston Center
07:48PM 41.5369 -73.2389 225° Southwest 386 444 34,000  Level Boston Center
07:50PM 41.3919 -73.4372 226° Southwest 371 427 34,000  Level New York Center
07:51PM 41.3189 -73.5364 226° Southwest 376 433 34,000  Level New York Center
07:52PM 41.2475 -73.6439 229° Southwest 376 433 34,000  Level New York Center
07:53PM 41.1822 -73.7539 232° Southwest 382 440 34,000  Level New York Center
07:54PM 41.1169 -73.8639 232° Southwest 382 440 34,000  Level New York Center
07:55PM 41.0494 -73.9736 231° Southwest 387 445 34,000 -393 Level New York Center
07:56PM 40.9839 -74.0861 232° Southwest 387 445 33,200 -942 Descending New York Center
07:57PM 40.9075 -74.2086 230° Southwest 392 451 32,100 -1,538 Descending New York Center
07:58PM 40.8394 -74.3203 231° Southwest 397 457 30,200 -2,136 Descending New York Center
07:59PM 40.7694 -74.4344 231° Southwest 397 457 27,900 -1,672 Descending New York Center
08:00PM 40.6950 -74.5428 228° Southwest 403 464 26,800 -800 Descending New York Center
08:01PM 40.6228 -74.6564 230° Southwest 408 470 26,300 -400 Descending New York Center
08:02PM 40.5461 -74.7667 228° Southwest 408 470 26,000 -148 Descending New York Center
08:03PM 40.4714 -74.8769 228° Southwest 408 470 26,000 -151 Level New York Center
08:04PM 40.3989 -74.9844 228° Southwest 408 470 25,700 -661 Descending New York Center
08:05PM 40.3261 -75.0914 228° Southwest 403 464 24,700 -992 Descending New York Center
08:06PM 40.2556 -75.1986 229° Southwest 398 458 23,700 -1,785 Descending New York Center
08:07PM 40.1850 -75.3000 228° Southwest 398 458 21,100 -2,390 Descending New York Center
08:08PM 40.1144 -75.3986 227° Southwest 386 444 19,000 -1,050 Descending New York Center
08:09PM 40.0528 -75.4842 227° Southwest 373 429 19,000  Level New York Center
08:10PM 39.9775 -75.5872 226° Southwest 363 418 19,000 -252 Level New York Center
08:11PM 39.9178 -75.6725 228° Southwest 358 412 18,500 -1,008 Descending New York Center
08:12PM 39.8589 -75.7847 236° Southwest 352 405 17,000 -1,261 Descending New York Center
08:13PM 39.8133 -75.8733 236° Southwest 325 374 16,000 -1,041 Descending New York Center
08:15PM 39.7000 -76.0667 233° Southwest 278 320 13,600 -1,146 Descending Potomac TRACON
08:16PM 39.6500 -76.1333 226° Southwest 258 297 12,200 -1,465 Descending Potomac TRACON
08:17PM 39.6000 -76.2167 232° Southwest 255 293 10,500 -1,524 Descending Potomac TRACON
08:18PM 39.5667 -76.2833 237° Southwest 256 295 9,000 -1,800 Descending Potomac TRACON
08:19PM 39.5167 -76.3667 232° Southwest 262 302 6,900 -1,842 Descending Potomac TRACON
08:20PM 39.5000 -76.4667 258° West 274 315 5,500 -1,000 Descending Potomac TRACON
08:21PM 39.5000 -76.5500 270° West 253 291 5,000 -250 Descending Potomac TRACON
08:22PM 39.5333 -76.6333 297° West 253 291 5,000 -421 Level Potomac TRACON
08:23PM 39.5000 -76.7000 237° Southwest 255 293 4,200 -500 Descending Potomac TRACON
08:24PM 39.4667 -76.7833 243° Southwest 221 254 4,000 -95 Descending Potomac TRACON
08:25PM 39.4333 -76.8500 237° Southwest 207 238 4,000  Level Potomac TRACON
08:26PM 39.4000 -76.9167 237° Southwest 212 244 4,000  Level Potomac TRACON
08:27PM 39.3500 -76.9667 218° Southwest 227 261 4,000  Level Potomac TRACON
08:28PM 39.3000 -76.9833 194° South 226 260 4,000 -53 Level Potomac TRACON
08:29PM 39.2333 -77.0000 191° South 205 236 3,900 -600 Descending Potomac TRACON
08:30PM 39.2000 -76.9833 159° South 203 234 2,800 -700 Descending Potomac TRACON
08:31PM 39.1833 -76.9167 108° East 199 229 2,500 -200 Descending Potomac TRACON
08:32PM 39.1833 -76.8500 90° East 188 216 2,400 -500 Descending Potomac TRACON
08:33PM 39.1833 -76.7833 90° East 173 199 1,500 -842 Descending Potomac TRACON
08:34PM 39.1833 -76.7333 90° East 142 163 800 -778 Descending Potomac TRACON
08:36PM 39.1667 -76.6667 270° West  Level FlightAware Approximate
08:43PM 39.1754 -76.6683 270° West  Level Estimated
08:44PM 39.1754 -76.6683 270° West  Level Estimated
08:45PM 39.1754 -76.6683 270° West  Level Estimated